createdAt,value
2018-04-22T00:00:21.080Z,67.72
2018-04-22T00:01:21.038Z,68.10
2018-04-22T00:02:21.016Z,68.58
2018-04-22T00:03:20.941Z,68.20
2018-04-22T00:04:20.891Z,68.45
2018-04-22T00:05:20.852Z,69.06
2018-04-22T00:06:20.806Z,70.01
2018-04-22T00:07:20.780Z,68.58
2018-04-22T00:08:20.712Z,68.26
2018-04-22T00:09:20.669Z,68.77
2018-04-22T00:10:20.619Z,68.45
2018-04-22T00:11:20.573Z,67.97
2018-04-22T00:12:20.556Z,67.78
2018-04-22T00:13:20.484Z,67.49
2018-04-22T00:14:20.435Z,67.49
2018-04-22T00:15:20.392Z,67.14
2018-04-22T00:16:20.346Z,67.11
2018-04-22T00:17:20.321Z,66.96
2018-04-22T00:18:20.252Z,66.63
2018-04-22T00:19:20.203Z,67.40
2018-04-22T00:20:20.161Z,67.21
2018-04-22T00:21:20.114Z,67.49
2018-04-22T00:22:20.095Z,66.83
2018-04-22T00:23:20.029Z,67.49
2018-04-22T00:24:19.975Z,67.59
2018-04-22T00:25:19.936Z,66.67
2018-04-22T00:26:19.883Z,66.54
2018-04-22T00:27:19.865Z,66.54
2018-04-22T00:28:19.796Z,67.49
2018-04-22T00:29:19.742Z,66.35
2018-04-22T00:30:19.702Z,66.63
2018-04-22T00:31:19.655Z,66.35
2018-04-22T00:32:19.636Z,66.57
2018-04-22T00:33:19.563Z,67.34
2018-04-22T00:34:19.517Z,67.49
2018-04-22T00:35:19.471Z,66.73
2018-04-22T00:36:19.426Z,67.49
2018-04-22T00:37:19.408Z,67.30
2018-04-22T00:38:19.338Z,66.73
2018-04-22T00:39:19.285Z,67.40
2018-04-22T00:40:19.242Z,67.40
2018-04-22T00:41:19.194Z,67.97
2018-04-22T00:42:19.169Z,67.97
2018-04-22T00:43:19.101Z,67.49
2018-04-22T00:44:19.055Z,68.64
2018-04-22T00:45:19.011Z,68.45
2018-04-22T00:46:18.966Z,68.07
2018-04-22T00:47:18.940Z,68.07
2018-04-22T00:48:18.873Z,69.60
2018-04-22T00:49:18.828Z,69.41
2018-04-22T00:50:18.779Z,69.50
2018-04-22T00:51:18.733Z,68.84
2018-04-22T00:52:18.715Z,69.31
2018-04-22T00:53:18.654Z,69.89
2018-04-22T00:54:18.596Z,69.41
2018-04-22T00:55:18.549Z,68.74
2018-04-22T00:56:18.502Z,70.07
2018-04-22T00:57:18.480Z,70.94
2018-04-22T00:58:18.429Z,69.41
2018-04-22T00:59:18.364Z,69.60
2018-04-22T01:00:18.319Z,69.98
2018-04-22T01:01:18.273Z,69.70
2018-04-22T01:02:18.253Z,70.07
2018-04-22T01:03:18.180Z,71.32
2018-04-22T01:04:18.136Z,70.94
2018-04-22T01:05:18.089Z,69.79
2018-04-22T01:06:18.044Z,70.56
2018-04-22T01:07:18.021Z,69.89
2018-04-22T01:08:17.950Z,70.27
2018-04-22T01:09:17.906Z,70.27
2018-04-22T01:10:17.858Z,70.46
2018-04-22T01:11:17.814Z,70.65
2018-04-22T01:12:17.792Z,69.89
2018-04-22T01:13:17.720Z,69.70
2018-04-22T01:14:17.674Z,69.79
2018-04-22T01:15:17.625Z,70.36
2018-04-22T01:16:17.593Z,71.03
2018-04-22T01:17:17.558Z,71.13
2018-04-22T01:18:17.491Z,71.51
2018-04-22T01:19:17.444Z,71.28
2018-04-22T01:20:17.396Z,70.71
2018-04-22T01:21:17.356Z,70.42
2018-04-22T01:22:17.329Z,70.23
2018-04-22T01:23:17.259Z,70.23
2018-04-22T01:24:17.212Z,70.81
2018-04-22T01:25:17.168Z,70.61
2018-04-22T01:26:17.130Z,70.14
2018-04-22T01:27:17.101Z,70.52
2018-04-22T01:28:17.031Z,71.19
2018-04-22T01:29:16.986Z,70.90
2018-04-22T01:30:16.938Z,72.53
2018-04-22T01:31:16.895Z,71.57
2018-04-22T01:32:16.870Z,71.28
2018-04-22T01:33:16.802Z,71.86
2018-04-22T01:34:16.756Z,72.43
2018-04-22T01:35:16.709Z,71.76
2018-04-22T01:36:16.661Z,71.38
2018-04-22T01:37:16.641Z,71.00
2018-04-22T01:38:16.570Z,71.09
2018-04-22T01:39:16.526Z,70.81
2018-04-22T01:40:16.477Z,70.81
2018-04-22T01:41:16.434Z,71.67
2018-04-22T01:42:16.409Z,71.95
2018-04-22T01:43:16.340Z,72.72
2018-04-22T01:44:16.297Z,73.67
2018-04-22T01:45:16.251Z,73.86
2018-04-22T01:46:16.199Z,74.63
2018-04-22T01:47:16.179Z,73.00
2018-04-22T01:48:16.108Z,71.95
2018-04-22T01:49:16.067Z,72.53
2018-04-22T01:50:16.023Z,74.34
2018-04-22T01:51:15.975Z,73.58
2018-04-22T01:52:15.946Z,73.58
2018-04-22T01:53:15.878Z,72.91
2018-04-22T01:54:15.831Z,72.58
2018-04-22T01:55:15.785Z,72.81
2018-04-22T01:56:15.740Z,72.68
2018-04-22T01:57:15.716Z,73.25
2018-04-22T01:58:15.645Z,72.43
2018-04-22T01:59:15.599Z,73.92
2018-04-22T02:00:15.553Z,73.86
2018-04-22T02:01:15.506Z,73.83
2018-04-22T02:02:15.481Z,74.11
2018-04-22T02:03:15.414Z,74.30
2018-04-22T02:04:15.368Z,74.30
2018-04-22T02:05:15.321Z,74.73
2018-04-22T02:06:15.277Z,74.44
2018-04-22T02:07:15.253Z,74.44
2018-04-22T02:08:15.183Z,73.54
2018-04-22T02:09:15.136Z,72.87
2018-04-22T02:10:15.093Z,72.78
2018-04-22T02:11:15.044Z,73.83
2018-04-22T02:12:15.018Z,74.59
2018-04-22T02:13:14.948Z,74.02
2018-04-22T02:14:14.900Z,73.54
2018-04-22T02:15:14.854Z,72.87
2018-04-22T02:16:14.809Z,73.35
2018-04-22T02:17:14.790Z,73.83
2018-04-22T02:18:14.717Z,72.78
2018-04-22T02:19:14.675Z,72.87
2018-04-22T02:20:14.632Z,72.87
2018-04-22T02:21:14.583Z,72.78
2018-04-22T02:22:14.558Z,72.97
2018-04-22T02:23:14.490Z,72.68
2018-04-22T02:24:14.438Z,72.78
2018-04-22T02:25:14.390Z,72.87
2018-04-22T02:26:14.348Z,73.35
2018-04-22T02:27:14.327Z,73.25
2018-04-22T02:28:14.251Z,73.44
2018-04-22T02:29:14.210Z,74.59
2018-04-22T02:30:14.161Z,75.83
2018-04-22T02:31:14.113Z,75.93
2018-04-22T02:32:14.092Z,75.16
2018-04-22T02:33:14.025Z,75.74
2018-04-22T02:34:13.980Z,77.17
2018-04-22T02:35:13.931Z,77.08
2018-04-22T02:36:13.882Z,75.74
2018-04-22T02:37:13.860Z,75.26
2018-04-22T02:38:13.788Z,74.98
2018-04-22T02:39:13.739Z,75.35
2018-04-22T02:40:13.699Z,75.64
2018-04-22T02:41:13.653Z,75.26
2018-04-22T02:42:13.616Z,75.70
2018-04-22T02:43:13.583Z,75.13
2018-04-22T02:44:13.508Z,75.83
2018-04-22T02:45:13.460Z,75.26
2018-04-22T02:46:13.416Z,75.79
2018-04-22T02:47:13.368Z,75.70
2018-04-22T02:48:13.345Z,75.42
2018-04-22T02:49:13.274Z,75.51
2018-04-22T02:50:13.230Z,75.60
2018-04-22T02:51:13.184Z,75.60
2018-04-22T02:52:13.135Z,75.79
2018-04-22T02:53:13.114Z,75.89
2018-04-22T02:54:13.044Z,75.70
2018-04-22T02:55:12.993Z,76.46
2018-04-22T02:56:12.948Z,76.84
2018-04-22T02:57:12.902Z,77.61
2018-04-22T02:58:12.880Z,77.13
2018-04-22T02:59:12.809Z,76.46
2018-04-22T03:00:12.765Z,76.56
2018-04-22T03:01:12.718Z,76.65
2018-04-22T03:02:12.667Z,76.56
2018-04-22T03:03:12.645Z,76.84
2018-04-22T03:04:12.578Z,77.13
2018-04-22T03:05:12.540Z,76.94
2018-04-22T03:06:12.483Z,77.70
2018-04-22T03:07:12.435Z,77.89
2018-04-22T03:08:12.415Z,77.80
2018-04-22T03:09:12.344Z,77.89
2018-04-22T03:10:12.307Z,77.42
2018-04-22T03:11:12.260Z,77.89
2018-04-22T03:12:12.205Z,77.61
2018-04-22T03:13:12.181Z,77.42
2018-04-22T03:14:12.108Z,77.70
2018-04-22T03:15:12.066Z,77.32
2018-04-22T03:16:12.019Z,78.66
2018-04-22T03:17:11.970Z,78.28
2018-04-22T03:18:11.945Z,78.05
2018-04-22T03:19:11.874Z,78.14
2018-04-22T03:20:11.834Z,78.05
2018-04-22T03:21:11.782Z,78.14
2018-04-22T03:22:11.783Z,77.95
2018-04-22T03:23:11.711Z,78.37
2018-04-22T03:24:11.644Z,78.33
2018-04-22T03:25:11.599Z,78.62
2018-04-22T03:26:11.553Z,78.62
2018-04-22T03:27:11.499Z,78.81
2018-04-22T03:28:11.479Z,78.91
2018-04-22T03:29:11.412Z,79.57
2018-04-22T03:30:11.365Z,78.72
2018-04-22T03:31:11.314Z,79.00
2018-04-22T03:32:11.267Z,79.10
2018-04-22T03:33:11.245Z,78.91
2018-04-22T03:34:11.175Z,79.00
2018-04-22T03:35:11.130Z,79.19
2018-04-22T03:36:11.083Z,79.00
2018-04-22T03:37:11.037Z,78.52
2018-04-22T03:38:11.010Z,78.43
2018-04-22T03:39:10.939Z,79.10
2018-04-22T03:40:10.896Z,78.14
2018-04-22T03:41:10.850Z,78.43
2018-04-22T03:42:10.800Z,78.52
2018-04-22T03:43:10.777Z,78.72
2018-04-22T03:44:10.709Z,79.28
2018-04-22T03:45:10.668Z,78.66
2018-04-22T03:46:10.615Z,79.48
2018-04-22T03:47:10.577Z,78.91
2018-04-22T03:48:10.548Z,79.10
2018-04-22T03:49:10.475Z,78.81
2018-04-22T03:50:10.430Z,78.81
2018-04-22T03:51:10.379Z,78.91
2018-04-22T03:52:10.337Z,78.91
2018-04-22T03:53:10.311Z,78.81
2018-04-22T03:54:10.242Z,79.00
2018-04-22T03:55:10.200Z,78.72
2018-04-22T03:56:10.148Z,78.81
2018-04-22T03:57:10.103Z,79.19
2018-04-22T03:58:10.080Z,80.05
2018-04-22T03:59:10.008Z,80.43
2018-04-22T04:00:09.960Z,80.15
2018-04-22T04:01:09.910Z,80.24
2018-04-22T04:02:09.873Z,80.62
2018-04-22T04:03:09.845Z,79.86
2018-04-22T04:04:09.773Z,80.05
2018-04-22T04:05:09.726Z,80.53
2018-04-22T04:06:09.686Z,80.33
2018-04-22T04:07:09.634Z,79.96
2018-04-22T04:08:09.606Z,80.15
2018-04-22T04:09:09.540Z,80.43
2018-04-22T04:10:09.495Z,80.15
2018-04-22T04:11:09.447Z,80.24
2018-04-22T04:12:09.399Z,80.05
2018-04-22T04:13:09.377Z,79.48
2018-04-22T04:14:09.309Z,80.62
2018-04-22T04:15:09.257Z,79.96
2018-04-22T04:16:09.212Z,81.20
2018-04-22T04:17:09.167Z,80.33
2018-04-22T04:18:09.157Z,79.00
2018-04-22T04:19:09.079Z,78.66
2018-04-22T04:20:09.022Z,78.66
2018-04-22T04:21:08.981Z,78.66
2018-04-22T04:22:08.934Z,78.37
2018-04-22T04:23:08.883Z,78.37
2018-04-22T04:24:08.864Z,78.47
2018-04-22T04:25:08.789Z,78.18
2018-04-22T04:26:08.743Z,78.28
2018-04-22T04:27:08.696Z,77.55
2018-04-22T04:28:08.655Z,77.89
2018-04-22T04:29:08.625Z,77.84
2018-04-22T04:30:08.556Z,78.03
2018-04-22T04:31:08.510Z,77.84
2018-04-22T04:32:08.460Z,78.31
2018-04-22T04:33:08.415Z,77.84
2018-04-22T04:34:08.393Z,77.84
2018-04-22T04:35:08.323Z,77.74
2018-04-22T04:36:08.289Z,77.55
2018-04-22T04:37:08.223Z,77.45
2018-04-22T04:38:08.185Z,77.94
2018-04-22T04:39:08.159Z,78.79
2018-04-22T04:40:08.090Z,79.08
2018-04-22T04:41:08.042Z,79.08
2018-04-22T04:42:07.996Z,79.85
2018-04-22T04:43:07.948Z,79.85
2018-04-22T04:44:07.925Z,80.32
2018-04-22T04:45:07.858Z,81.56
2018-04-22T04:46:07.806Z,81.27
2018-04-22T04:47:07.766Z,81.09
2018-04-22T04:48:07.714Z,80.22
2018-04-22T04:49:07.693Z,80.22
2018-04-22T04:50:07.623Z,80.85
2018-04-22T04:51:07.580Z,82.04
2018-04-22T04:52:07.528Z,81.85
2018-04-22T04:53:07.483Z,81.37
2018-04-22T04:54:07.463Z,81.09
2018-04-22T04:55:07.389Z,80.51
2018-04-22T04:56:07.356Z,80.41
2018-04-22T04:57:07.297Z,81.37
2018-04-22T04:58:07.249Z,81.27
2018-04-22T04:59:07.224Z,80.04
2018-04-22T05:00:07.156Z,80.51
2018-04-22T05:01:07.110Z,80.13
2018-04-22T05:02:07.065Z,80.32
2018-04-22T05:03:07.016Z,79.56
2018-04-22T05:04:07.011Z,78.99
2018-04-22T05:05:06.923Z,78.99
2018-04-22T05:06:06.876Z,79.36
2018-04-22T05:07:06.828Z,79.27
2018-04-22T05:08:06.786Z,79.12
2018-04-22T05:09:06.738Z,80.65
2018-04-22T05:10:06.715Z,79.88
2018-04-22T05:11:06.655Z,79.50
2018-04-22T05:12:06.600Z,79.50
2018-04-22T05:13:06.556Z,80.36
2018-04-22T05:14:06.504Z,80.36
2018-04-22T05:15:06.482Z,80.27
2018-04-22T05:16:06.412Z,80.07
2018-04-22T05:17:06.370Z,80.65
2018-04-22T05:18:06.321Z,81.13
2018-04-22T05:19:06.278Z,81.22
2018-04-22T05:20:06.256Z,80.93
2018-04-22T05:21:06.181Z,81.51
2018-04-22T05:22:06.143Z,82.08
2018-04-22T05:23:06.091Z,81.99
2018-04-22T05:24:06.042Z,81.99
2018-04-22T05:25:06.026Z,82.75
2018-04-22T05:26:05.960Z,81.99
2018-04-22T05:27:05.905Z,81.13
2018-04-22T05:28:05.867Z,81.41
2018-04-22T05:29:05.815Z,81.79
2018-04-22T05:30:05.792Z,82.37
2018-04-22T05:31:05.723Z,81.22
2018-04-22T05:32:05.674Z,81.26
2018-04-22T05:33:05.631Z,81.36
2018-04-22T05:34:05.584Z,81.84
2018-04-22T05:35:05.562Z,82.31
2018-04-22T05:36:05.490Z,82.31
2018-04-22T05:37:05.451Z,82.31
2018-04-22T05:38:05.438Z,82.51
2018-04-22T05:39:05.355Z,82.31
2018-04-22T05:40:05.333Z,82.60
2018-04-22T05:41:05.267Z,82.70
2018-04-22T05:42:05.219Z,81.16
2018-04-22T05:43:05.164Z,80.11
2018-04-22T05:44:05.125Z,80.50
2018-04-22T05:45:05.101Z,80.69
2018-04-22T05:46:05.033Z,81.07
2018-04-22T05:47:04.985Z,80.40
2018-04-22T05:48:04.938Z,81.07
2018-04-22T05:49:04.891Z,81.21
2018-04-22T05:50:04.874Z,81.30
2018-04-22T05:51:04.806Z,81.40
2018-04-22T05:52:04.760Z,82.26
2018-04-22T05:53:04.711Z,81.21
2018-04-22T05:54:04.671Z,81.30
2018-04-22T05:55:04.651Z,81.30
2018-04-22T05:56:04.575Z,82.26
2018-04-22T05:57:04.538Z,81.21
2018-04-22T05:58:04.496Z,79.96
2018-04-22T05:59:04.438Z,80.06
2018-04-22T06:00:04.389Z,80.54
2018-04-22T06:01:04.391Z,81.02
2018-04-22T06:02:04.310Z,81.68
2018-04-22T06:03:04.253Z,81.49
2018-04-22T06:04:04.211Z,81.11
2018-04-22T06:05:04.168Z,80.63
2018-04-22T06:06:04.146Z,81.21
2018-04-22T06:07:04.090Z,80.63
2018-04-22T06:08:04.039Z,81.11
2018-04-22T06:09:03.986Z,80.82
2018-04-22T06:10:03.940Z,79.77
2018-04-22T06:11:03.916Z,79.20
2018-04-22T06:12:03.845Z,79.77
2018-04-22T06:13:03.799Z,80.77
2018-04-22T06:14:03.756Z,81.34
2018-04-22T06:15:03.711Z,82.01
2018-04-22T06:16:03.686Z,81.44
2018-04-22T06:17:03.620Z,81.63
2018-04-22T06:18:03.572Z,81.54
2018-04-22T06:19:03.525Z,80.48
2018-04-22T06:20:03.481Z,80.58
2018-04-22T06:21:03.459Z,77.75
2018-04-22T06:22:03.392Z,77.84
2018-04-22T06:23:03.347Z,78.70
2018-04-22T06:24:03.303Z,78.32
2018-04-22T06:25:03.259Z,78.64
2018-04-22T06:26:03.238Z,78.93
2018-04-22T06:27:03.163Z,79.22
2018-04-22T06:28:03.137Z,78.55
2018-04-22T06:29:03.074Z,77.59
2018-04-22T06:30:03.032Z,77.88
2018-04-22T06:31:03.007Z,77.97
2018-04-22T06:32:02.939Z,78.27
2018-04-22T06:33:02.894Z,76.73
2018-04-22T06:34:02.848Z,76.35
2018-04-22T06:35:02.803Z,76.92
2018-04-22T06:36:02.783Z,76.44
2018-04-22T06:37:02.716Z,75.87
2018-04-22T06:38:02.670Z,76.64
2018-04-22T06:39:02.625Z,77.88
2018-04-22T06:40:02.577Z,77.97
2018-04-22T06:41:02.561Z,77.55
2018-04-22T06:42:02.498Z,77.75
2018-04-22T06:43:02.463Z,77.36
2018-04-22T06:44:02.399Z,77.36
2018-04-22T06:45:02.354Z,76.98
2018-04-22T06:46:02.337Z,77.26
2018-04-22T06:47:02.267Z,77.36
2018-04-22T06:48:02.222Z,78.03
2018-04-22T06:49:02.177Z,77.65
2018-04-22T06:50:02.128Z,77.84
2018-04-22T06:51:02.113Z,78.27
2018-04-22T06:52:02.038Z,77.88
2018-04-22T06:53:01.995Z,78.07
2018-04-22T06:54:01.951Z,77.63
2018-04-22T06:55:01.907Z,77.34
2018-04-22T06:56:01.900Z,77.34
2018-04-22T06:57:01.817Z,77.63
2018-04-22T06:58:01.771Z,76.77
2018-04-22T06:59:01.725Z,76.32
2018-04-22T07:00:01.680Z,75.95
2018-04-22T07:01:01.661Z,76.04
2018-04-22T07:02:01.592Z,76.23
2018-04-22T07:03:01.543Z,74.93
2018-04-22T07:04:01.503Z,75.12
2018-04-22T07:05:01.461Z,75.40
2018-04-22T07:06:01.434Z,75.40
2018-04-22T07:07:01.365Z,74.83
2018-04-22T07:08:01.322Z,74.29
2018-04-22T07:09:01.283Z,74.96
2018-04-22T07:10:01.235Z,73.91
2018-04-22T07:11:01.212Z,72.95
2018-04-22T07:12:01.146Z,73.94
2018-04-22T07:13:01.100Z,73.46
2018-04-22T07:14:01.058Z,73.94
2018-04-22T07:15:01.011Z,74.23
2018-04-22T07:16:00.999Z,73.94
2018-04-22T07:17:00.965Z,73.94
2018-04-22T07:18:00.916Z,73.02
2018-04-22T07:19:00.834Z,70.72
2018-04-22T07:20:00.793Z,71.29
2018-04-22T07:21:00.769Z,70.62
2018-04-22T07:22:00.706Z,71.67
2018-04-22T07:23:00.659Z,71.61
2018-04-22T07:24:00.659Z,71.81
2018-04-22T07:25:00.571Z,71.52
2018-04-22T07:26:00.552Z,71.91
2018-04-22T07:27:00.483Z,70.94
2018-04-22T07:28:00.448Z,71.42
2018-04-22T07:29:00.399Z,71.04
2018-04-22T07:30:00.356Z,70.07
2018-04-22T07:31:00.336Z,69.02
2018-04-22T07:32:00.270Z,70.11
2018-04-22T07:33:00.224Z,69.73
2018-04-22T07:34:00.185Z,69.79
2018-04-22T07:35:00.138Z,70.21
2018-04-22T07:36:00.119Z,70.40
2018-04-22T07:37:00.055Z,69.82
2018-04-22T07:38:00.007Z,70.11
2018-04-22T07:38:59.966Z,70.30
2018-04-22T07:39:59.923Z,69.73
2018-04-22T07:40:59.902Z,71.26
2018-04-22T07:41:59.836Z,70.01
2018-04-22T07:42:59.796Z,68.86
2018-04-22T07:43:59.751Z,68.76
2018-04-22T07:44:59.709Z,70.21
2018-04-22T07:45:59.740Z,69.95
2018-04-22T07:46:59.620Z,70.24
2018-04-22T07:47:59.574Z,69.09
2018-04-22T07:48:59.534Z,69.95
2018-04-22T07:49:59.491Z,70.15
2018-04-22T07:50:59.472Z,68.80
2018-04-22T07:51:59.417Z,68.70
2018-04-22T07:52:59.364Z,69.47
2018-04-22T07:53:59.320Z,68.74
2018-04-22T07:54:59.278Z,67.77
2018-04-22T07:55:59.258Z,67.77
2018-04-22T07:56:59.207Z,68.16
2018-04-22T07:57:59.151Z,69.22
2018-04-22T07:58:59.109Z,67.87
2018-04-22T07:59:59.067Z,66.91
2018-04-22T08:00:59.047Z,68.48
2018-04-22T08:01:58.983Z,67.81
2018-04-22T08:02:58.938Z,66.85
2018-04-22T08:03:58.897Z,67.23
2018-04-22T08:04:58.855Z,67.03
2018-04-22T08:05:58.835Z,67.03
2018-04-22T08:06:58.765Z,66.07
2018-04-22T08:07:58.729Z,66.85
2018-04-22T08:08:58.684Z,66.85
2018-04-22T08:09:58.647Z,66.85
2018-04-22T08:10:58.621Z,67.13
2018-04-22T08:11:58.556Z,66.78
2018-04-22T08:12:58.516Z,66.97
2018-04-22T08:13:58.471Z,67.16
2018-04-22T08:14:58.430Z,67.16
2018-04-22T08:15:58.412Z,66.78
2018-04-22T08:16:58.344Z,68.04
2018-04-22T08:17:58.308Z,67.65
2018-04-22T08:18:58.276Z,65.63
2018-04-22T08:19:58.227Z,66.01
2018-04-22T08:20:58.205Z,65.24
2018-04-22T08:21:58.138Z,66.20
2018-04-22T08:22:58.095Z,66.72
2018-04-22T08:23:58.052Z,67.00
2018-04-22T08:24:58.014Z,65.37
2018-04-22T08:25:57.996Z,65.75
2018-04-22T08:26:57.927Z,66.33
2018-04-22T08:27:57.888Z,67.97
2018-04-22T08:28:57.851Z,66.59
2018-04-22T08:29:57.807Z,67.30
2018-04-22T08:30:57.784Z,66.59
2018-04-22T08:31:57.723Z,67.07
2018-04-22T08:32:57.681Z,68.32
2018-04-22T08:33:57.670Z,68.13
2018-04-22T08:34:57.600Z,67.94
2018-04-22T08:35:57.580Z,68.61
2018-04-22T08:36:57.514Z,68.99
2018-04-22T08:37:57.472Z,67.65
2018-04-22T08:38:57.431Z,66.88
2018-04-22T08:39:57.390Z,67.10
2018-04-22T08:40:57.368Z,68.16
2018-04-22T08:41:57.310Z,67.68
2018-04-22T08:42:57.262Z,66.82
2018-04-22T08:43:57.367Z,67.33
2018-04-22T08:44:57.181Z,66.66
2018-04-22T08:45:57.176Z,66.56
2018-04-22T08:46:57.099Z,65.78
2018-04-22T08:47:57.057Z,66.46
2018-04-22T08:48:57.023Z,65.50
2018-04-22T08:49:56.978Z,65.40
2018-04-22T08:50:56.945Z,65.69
2018-04-22T08:51:56.915Z,65.11
2018-04-22T08:52:56.850Z,65.30
2018-04-22T08:53:56.810Z,68.10
2018-04-22T08:54:56.768Z,68.10
2018-04-22T08:55:56.726Z,65.63
2018-04-22T08:56:56.708Z,65.34
2018-04-22T08:57:56.648Z,65.14
2018-04-22T08:58:56.607Z,64.86
2018-04-22T08:59:56.562Z,64.37
2018-04-22T09:00:56.521Z,64.47
2018-04-22T09:01:56.553Z,65.53
2018-04-22T09:02:56.439Z,63.40
2018-04-22T09:03:56.407Z,63.40
2018-04-22T09:04:56.356Z,64.66
2018-04-22T09:05:56.321Z,64.47
2018-04-22T09:06:56.302Z,65.05
2018-04-22T09:07:56.237Z,64.28
2018-04-22T09:08:56.196Z,65.08
2018-04-22T09:09:56.156Z,64.79
2018-04-22T09:10:56.113Z,64.31
2018-04-22T09:11:56.097Z,63.92
2018-04-22T09:12:56.033Z,63.15
2018-04-22T09:13:55.992Z,63.63
2018-04-22T09:14:55.951Z,64.01
2018-04-22T09:15:55.912Z,64.89
2018-04-22T09:16:55.895Z,64.79
2018-04-22T09:17:55.832Z,65.56
2018-04-22T09:18:55.789Z,66.05
2018-04-22T09:19:55.747Z,64.89
2018-04-22T09:20:55.713Z,66.05
2018-04-22T09:21:55.713Z,64.92
2018-04-22T09:22:55.627Z,63.76
2018-04-22T09:23:55.588Z,61.44
2018-04-22T09:24:55.548Z,64.82
2018-04-22T09:25:55.508Z,65.85
2018-04-22T09:26:55.487Z,64.92
2018-04-22T09:27:55.452Z,65.40
2018-04-22T09:28:55.384Z,63.37
2018-04-22T09:29:55.343Z,65.78
2018-04-22T09:30:55.303Z,65.78
2018-04-22T09:31:55.288Z,65.50
2018-04-22T09:32:55.222Z,64.53
2018-04-22T09:33:55.214Z,64.53
2018-04-22T09:34:55.140Z,65.20
2018-04-22T09:35:55.101Z,64.53
2018-04-22T09:36:55.085Z,63.08
2018-04-22T09:37:55.020Z,63.79
2018-04-22T09:38:54.978Z,62.82
2018-04-22T09:39:54.940Z,62.73
2018-04-22T09:40:54.901Z,62.18
2018-04-22T09:41:54.896Z,63.43
2018-04-22T09:42:54.818Z,62.85
2018-04-22T09:43:54.781Z,61.30
2018-04-22T09:44:54.739Z,61.79
2018-04-22T09:45:54.712Z,62.47
2018-04-22T09:46:54.680Z,61.89
2018-04-22T09:47:54.621Z,59.38
2018-04-22T09:48:54.579Z,60.44
2018-04-22T09:49:54.590Z,60.44
2018-04-22T09:50:54.499Z,60.72
2018-04-22T09:51:54.486Z,61.50
2018-04-22T09:52:54.422Z,61.50
2018-04-22T09:53:54.381Z,61.79
2018-04-22T09:54:54.345Z,61.79
2018-04-22T09:55:54.301Z,60.05
2018-04-22T09:56:54.288Z,61.50
2018-04-22T09:57:54.223Z,62.05
2018-04-22T09:58:54.181Z,62.66
2018-04-22T09:59:54.141Z,60.31
2018-04-22T10:00:54.105Z,59.76
2018-04-22T10:01:54.085Z,60.02
2018-04-22T10:02:54.038Z,60.21
2018-04-22T10:03:53.984Z,61.50
2018-04-22T10:04:53.993Z,60.31
2018-04-22T10:05:53.905Z,61.57
2018-04-22T10:06:53.885Z,62.53
2018-04-22T10:07:53.823Z,63.34
2018-04-22T10:08:53.783Z,62.76
2018-04-22T10:09:53.746Z,62.47
2018-04-22T10:10:53.708Z,61.30
2018-04-22T10:11:53.691Z,62.08
2018-04-22T10:12:53.625Z,61.82
2018-04-22T10:13:53.589Z,60.34
2018-04-22T10:14:53.546Z,59.38
2018-04-22T10:15:53.506Z,60.72
2018-04-22T10:16:53.490Z,59.86
2018-04-22T10:17:53.425Z,60.05
2018-04-22T10:18:53.388Z,60.50
2018-04-22T10:19:53.346Z,61.40
2018-04-22T10:20:53.308Z,62.53
2018-04-22T10:21:53.340Z,62.56
2018-04-22T10:22:53.227Z,62.37
2018-04-22T10:23:53.188Z,61.60
2018-04-22T10:24:53.146Z,60.63
2018-04-22T10:25:53.107Z,62.37
2018-04-22T10:26:53.090Z,60.34
2018-04-22T10:27:53.026Z,60.34
2018-04-22T10:28:52.989Z,62.11
2018-04-22T10:29:52.947Z,62.79
2018-04-22T10:30:52.907Z,63.08
2018-04-22T10:31:52.896Z,61.53
2018-04-22T10:32:52.831Z,61.15
2018-04-22T10:33:52.790Z,60.17
2018-04-22T10:34:52.753Z,59.38
2018-04-22T10:35:52.713Z,59.21
2018-04-22T10:36:52.695Z,60.66
2018-04-22T10:37:52.634Z,62.59
2018-04-22T10:38:52.593Z,61.30
2018-04-22T10:39:52.551Z,61.50
2018-04-22T10:40:52.511Z,62.69
2018-04-22T10:41:52.528Z,62.11
2018-04-22T10:42:52.435Z,60.66
2018-04-22T10:43:52.396Z,60.17
2018-04-22T10:44:52.367Z,62.30
2018-04-22T10:45:52.318Z,62.59
2018-04-22T10:46:52.295Z,61.53
2018-04-22T10:47:52.236Z,61.63
2018-04-22T10:48:52.195Z,61.72
2018-04-22T10:49:52.157Z,61.43
2018-04-22T10:50:52.116Z,60.75
2018-04-22T10:51:52.098Z,59.98
2018-04-22T10:52:52.036Z,60.37
2018-04-22T10:53:52.011Z,61.24
2018-04-22T10:54:51.961Z,61.18
2018-04-22T10:55:51.919Z,58.75
2018-04-22T10:56:51.901Z,59.82
2018-04-22T10:57:51.844Z,61.08
2018-04-22T10:58:51.797Z,61.85
2018-04-22T10:59:51.782Z,61.56
2018-04-22T11:00:51.720Z,62.24
2018-04-22T11:01:51.704Z,61.18
2018-04-22T11:02:51.652Z,60.88
2018-04-22T11:03:51.598Z,60.21
2018-04-22T11:04:51.561Z,58.75
2018-04-22T11:05:51.523Z,60.50
2018-04-22T11:06:51.505Z,61.36
2018-04-22T11:07:51.442Z,59.43
2018-04-22T11:08:51.402Z,59.72
2018-04-22T11:09:51.366Z,60.69
2018-04-22T11:10:51.327Z,61.18
2018-04-22T11:11:51.311Z,60.21
2018-04-22T11:12:51.246Z,61.59
2018-04-22T11:13:51.205Z,61.30
2018-04-22T11:14:51.166Z,60.24
2018-04-22T11:15:51.128Z,59.07
2018-04-22T11:16:51.110Z,60.33
2018-04-22T11:17:51.047Z,60.72
2018-04-22T11:18:51.008Z,58.39
2018-04-22T11:19:50.969Z,58.49
2018-04-22T11:20:50.931Z,59.07
2018-04-22T11:21:50.929Z,59.56
2018-04-22T11:22:50.853Z,60.62
2018-04-22T11:23:50.812Z,60.72
2018-04-22T11:24:50.779Z,60.33
2018-04-22T11:25:50.736Z,59.84
2018-04-22T11:26:50.696Z,59.46
2018-04-22T11:27:50.675Z,60.33
2018-04-22T11:28:50.622Z,61.59
2018-04-22T11:29:50.576Z,60.24
2018-04-22T11:30:50.539Z,59.56
2018-04-22T11:31:50.504Z,60.43
2018-04-22T11:32:50.485Z,59.75
2018-04-22T11:33:50.420Z,59.46
2018-04-22T11:34:50.380Z,60.24
2018-04-22T11:35:50.343Z,61.11
2018-04-22T11:36:50.303Z,60.24
2018-04-22T11:37:50.287Z,58.78
2018-04-22T11:38:50.225Z,57.33
2018-04-22T11:39:50.187Z,58.23
2018-04-22T11:40:50.163Z,58.39
2018-04-22T11:41:50.106Z,58.69
2018-04-22T11:42:50.092Z,58.30
2018-04-22T11:43:50.025Z,60.43
2018-04-22T11:44:49.993Z,59.17
2018-04-22T11:45:49.952Z,58.04
2018-04-22T11:46:49.911Z,56.68
2018-04-22T11:47:49.932Z,57.33
2018-04-22T11:48:49.829Z,59.84
2018-04-22T11:49:49.795Z,60.27
2018-04-22T11:50:49.753Z,59.59
2018-04-22T11:51:49.716Z,58.91
2018-04-22T11:52:49.700Z,58.69
2018-04-22T11:53:49.637Z,58.78
2018-04-22T11:54:49.599Z,59.46
2018-04-22T11:55:49.556Z,58.69
2018-04-22T11:56:49.521Z,58.30
2018-04-22T11:57:49.502Z,59.07
2018-04-22T11:58:49.441Z,58.98
2018-04-22T11:59:49.435Z,57.36
2018-04-22T12:00:49.361Z,58.69
2018-04-22T12:01:49.326Z,57.62
2018-04-22T12:02:49.306Z,57.45
2018-04-22T12:03:49.242Z,58.49
2018-04-22T12:04:49.203Z,58.91
2018-04-22T12:05:49.178Z,57.94
2018-04-22T12:06:49.130Z,54.26
2018-04-22T12:07:49.112Z,54.26
2018-04-22T12:08:49.048Z,55.62
2018-04-22T12:09:49.008Z,55.81
2018-04-22T12:10:48.972Z,55.81
2018-04-22T12:11:48.931Z,54.74
2018-04-22T12:12:48.916Z,55.81
2018-04-22T12:13:48.855Z,54.94
2018-04-22T12:14:48.823Z,55.22
2018-04-22T12:15:48.778Z,54.94
2018-04-22T12:16:48.738Z,55.62
2018-04-22T12:17:48.726Z,54.55
2018-04-22T12:18:48.662Z,56.51
2018-04-22T12:19:48.623Z,54.77
2018-04-22T12:20:48.585Z,54.28
2018-04-22T12:21:48.549Z,54.67
2018-04-22T12:22:48.537Z,54.28
2018-04-22T12:23:48.469Z,54.19
2018-04-22T12:24:48.432Z,52.64
2018-04-22T12:25:48.394Z,53.63
2018-04-22T12:26:48.360Z,52.95
2018-04-22T12:27:48.340Z,53.44
2018-04-22T12:28:48.277Z,53.22
2018-04-22T12:29:48.240Z,54.21
2018-04-22T12:30:48.199Z,54.02
2018-04-22T12:31:48.164Z,53.15
2018-04-22T12:32:48.148Z,52.34
2018-04-22T12:33:48.089Z,51.40
2018-04-22T12:34:48.045Z,48.47
2018-04-22T12:35:48.010Z,49.92
2018-04-22T12:36:47.971Z,51.09
2018-04-22T12:37:47.957Z,51.47
2018-04-22T12:38:47.895Z,50.89
2018-04-22T12:39:47.854Z,51.18
2018-04-22T12:40:47.817Z,51.67
2018-04-22T12:41:47.783Z,52.28
2018-04-22T12:42:47.765Z,52.83
2018-04-22T12:43:47.708Z,53.22
2018-04-22T12:44:47.667Z,52.73
2018-04-22T12:45:47.637Z,51.67
2018-04-22T12:46:47.589Z,51.21
2018-04-22T12:47:47.600Z,51.01
2018-04-22T12:48:47.511Z,51.11
2018-04-22T12:49:47.478Z,50.53
2018-04-22T12:50:47.436Z,51.89
2018-04-22T12:51:47.395Z,53.24